sensor_id;sensor_type;location;lat;lon;timestamp;P1;durP1;ratioP1;P2;durP2;ratioP2
7685;SDS011;3885;51.474;-2.576;2022-12-07T00:01:23;12.50;;;5.50;;
7685;SDS011;3885;51.474;-2.576;2022-12-07T00:03:52;13.57;;;6.07;;
7685;SDS011;3885;51.474;-2.576;2022-12-07T00:06:22;9.33;;;5.40;;
7685;SDS011;3885;51.474;-2.576;2022-12-07T00:08:49;21.00;;;6.97;;
7685;SDS011;3885;51.474;-2.576;2022-12-07T00:11:17;11.27;;;6.07;;
7685;SDS011;3885;51.474;-2.576;2022-12-07T00:13:45;11.90;;;7.80;;
7685;SDS011;3885;51.474;-2.576;2022-12-07T00:16:13;16.60;;;7.53;;
7685;SDS011;3885;51.474;-2.576;2022-12-07T00:18:41;21.43;;;7.57;;
7685;SDS011;3885;51.474;-2.576;2022-12-07T00:21:10;15.40;;;8.00;;
7685;SDS011;3885;51.474;-2.576;2022-12-07T00:23:38;14.30;;;5.90;;
7685;SDS011;3885;51.474;-2.576;2022-12-07T00:26:05;14.87;;;5.50;;
7685;SDS011;3885;51.474;-2.576;2022-12-07T00:28:33;11.97;;;5.87;;
7685;SDS011;3885;51.474;-2.576;2022-12-07T00:31:01;7.40;;;4.20;;
7685;SDS011;3885;51.474;-2.576;2022-12-07T00:33:30;10.50;;;5.80;;
7685;SDS011;3885;51.474;-2.576;2022-12-07T00:35:57;13.27;;;5.83;;
7685;SDS011;3885;51.474;-2.576;2022-12-07T00:38:27;10.20;;;5.17;;
7685;SDS011;3885;51.474;-2.576;2022-12-07T00:40:55;8.63;;;4.73;;
7685;SDS011;3885;51.474;-2.576;2022-12-07T00:43:22;9.90;;;5.30;;
7685;SDS011;3885;51.474;-2.576;2022-12-07T00:45:50;6.40;;;3.97;;
7685;SDS011;3885;51.474;-2.576;2022-12-07T00:48:17;8.53;;;4.97;;
7685;SDS011;3885;51.474;-2.576;2022-12-07T00:50:44;8.67;;;5.10;;
7685;SDS011;3885;51.474;-2.576;2022-12-07T00:53:11;18.20;;;5.60;;
7685;SDS011;3885;51.474;-2.576;2022-12-07T00:55:40;13.90;;;5.57;;
7685;SDS011;3885;51.474;-2.576;2022-12-07T00:58:07;9.33;;;4.57;;
7685;SDS011;3885;51.474;-2.576;2022-12-07T01:00:35;10.40;;;5.77;;
7685;SDS011;3885;51.474;-2.576;2022-12-07T01:03:03;8.60;;;5.20;;
7685;SDS011;3885;51.474;-2.576;2022-12-07T01:05:30;13.90;;;5.60;;
7685;SDS011;3885;51.474;-2.576;2022-12-07T01:07:57;11.87;;;5.70;;
7685;SDS011;3885;51.474;-2.576;2022-12-07T01:10:24;17.27;;;6.33;;
7685;SDS011;3885;51.474;-2.576;2022-12-07T01:12:52;10.20;;;4.73;;
7685;SDS011;3885;51.474;-2.576;2022-12-07T01:15:20;14.57;;;5.50;;
7685;SDS011;3885;51.474;-2.576;2022-12-07T01:17:47;11.90;;;5.23;;
7685;SDS011;3885;51.474;-2.576;2022-12-07T01:20:14;17.43;;;6.50;;
7685;SDS011;3885;51.474;-2.576;2022-12-07T01:22:42;15.43;;;7.10;;
7685;SDS011;3885;51.474;-2.576;2022-12-07T01:25:10;12.30;;;5.83;;
7685;SDS011;3885;51.474;-2.576;2022-12-07T01:27:38;12.47;;;6.30;;
7685;SDS011;3885;51.474;-2.576;2022-12-07T01:30:07;19.50;;;6.93;;
7685;SDS011;3885;51.474;-2.576;2022-12-07T01:32:34;11.97;;;5.70;;
7685;SDS011;3885;51.474;-2.576;2022-12-07T01:35:01;16.27;;;5.33;;
7685;SDS011;3885;51.474;-2.576;2022-12-07T01:37:33;11.83;;;5.50;;
7685;SDS011;3885;51.474;-2.576;2022-12-07T01:40:00;11.00;;;4.63;;
7685;SDS011;3885;51.474;-2.576;2022-12-07T01:42:27;15.50;;;5.70;;
7685;SDS011;3885;51.474;-2.576;2022-12-07T01:47:41;10.17;;;5.30;;
7685;SDS011;3885;51.474;-2.576;2022-12-07T01:50:10;18.53;;;5.57;;
7685;SDS011;3885;51.474;-2.576;2022-12-07T01:52:37;12.63;;;5.77;;
7685;SDS011;3885;51.474;-2.576;2022-12-07T01:55:07;10.50;;;5.90;;
7685;SDS011;3885;51.474;-2.576;2022-12-07T01:57:36;12.93;;;5.13;;
7685;SDS011;3885;51.474;-2.576;2022-12-07T02:00:06;21.77;;;7.50;;
7685;SDS011;3885;51.474;-2.576;2022-12-07T02:02:34;15.37;;;5.20;;
7685;SDS011;3885;51.474;-2.576;2022-12-07T02:05:05;19.47;;;5.60;;
7685;SDS011;3885;51.474;-2.576;2022-12-07T02:07:32;11.57;;;6.07;;
7685;SDS011;3885;51.474;-2.576;2022-12-07T02:10:11;15.37;;;6.20;;
7685;SDS011;3885;51.474;-2.576;2022-12-07T02:12:39;14.33;;;6.13;;
7685;SDS011;3885;51.474;-2.576;2022-12-07T02:15:06;19.67;;;6.43;;
7685;SDS011;3885;51.474;-2.576;2022-12-07T02:17:36;14.07;;;6.03;;
7685;SDS011;3885;51.474;-2.576;2022-12-07T02:20:13;16.57;;;5.50;;
7685;SDS011;3885;51.474;-2.576;2022-12-07T02:25:29;15.30;;;5.37;;
7685;SDS011;3885;51.474;-2.576;2022-12-07T02:28:01;14.67;;;7.33;;
7685;SDS011;3885;51.474;-2.576;2022-12-07T02:30:34;22.43;;;5.30;;
7685;SDS011;3885;51.474;-2.576;2022-12-07T02:33:03;15.07;;;6.10;;
7685;SDS011;3885;51.474;-2.576;2022-12-07T02:35:32;12.63;;;5.73;;
7685;SDS011;3885;51.474;-2.576;2022-12-07T02:38:02;16.03;;;5.27;;
7685;SDS011;3885;51.474;-2.576;2022-12-07T02:40:36;25.27;;;6.67;;
7685;SDS011;3885;51.474;-2.576;2022-12-07T02:43:06;10.07;;;4.67;;
7685;SDS011;3885;51.474;-2.576;2022-12-07T02:45:39;11.30;;;6.67;;
7685;SDS011;3885;51.474;-2.576;2022-12-07T02:48:07;7.23;;;4.30;;
7685;SDS011;3885;51.474;-2.576;2022-12-07T02:50:35;16.47;;;5.73;;
7685;SDS011;3885;51.474;-2.576;2022-12-07T02:53:02;10.37;;;5.87;;
7685;SDS011;3885;51.474;-2.576;2022-12-07T02:55:31;16.03;;;5.17;;
7685;SDS011;3885;51.474;-2.576;2022-12-07T02:58:05;6.97;;;4.30;;
7685;SDS011;3885;51.474;-2.576;2022-12-07T03:00:34;12.97;;;6.40;;
7685;SDS011;3885;51.474;-2.576;2022-12-07T03:03:07;13.80;;;4.70;;
7685;SDS011;3885;51.474;-2.576;2022-12-07T03:05:46;18.40;;;6.10;;
7685;SDS011;3885;51.474;-2.576;2022-12-07T03:08:18;9.97;;;4.30;;
7685;SDS011;3885;51.474;-2.576;2022-12-07T03:10:50;13.03;;;4.57;;
7685;SDS011;3885;51.474;-2.576;2022-12-07T03:13:24;9.93;;;4.20;;
7685;SDS011;3885;51.474;-2.576;2022-12-07T03:15:54;10.03;;;5.00;;
7685;SDS011;3885;51.474;-2.576;2022-12-07T03:18:24;10.10;;;4.20;;
7685;SDS011;3885;51.474;-2.576;2022-12-07T03:20:55;11.07;;;5.00;;
7685;SDS011;3885;51.474;-2.576;2022-12-07T03:23:23;11.83;;;4.60;;
7685;SDS011;3885;51.474;-2.576;2022-12-07T03:25:52;10.20;;;4.63;;
7685;SDS011;3885;51.474;-2.576;2022-12-07T03:28:20;8.57;;;4.43;;
7685;SDS011;3885;51.474;-2.576;2022-12-07T03:30:51;7.27;;;3.90;;
7685;SDS011;3885;51.474;-2.576;2022-12-07T03:33:20;8.27;;;3.97;;
7685;SDS011;3885;51.474;-2.576;2022-12-07T03:35:51;14.47;;;5.50;;
7685;SDS011;3885;51.474;-2.576;2022-12-07T03:38:19;9.20;;;4.40;;
7685;SDS011;3885;51.474;-2.576;2022-12-07T03:40:49;7.00;;;3.83;;
7685;SDS011;3885;51.474;-2.576;2022-12-07T03:43:21;6.60;;;3.97;;
7685;SDS011;3885;51.474;-2.576;2022-12-07T03:45:58;9.23;;;5.20;;
7685;SDS011;3885;51.474;-2.576;2022-12-07T03:48:28;6.77;;;4.30;;
7685;SDS011;3885;51.474;-2.576;2022-12-07T03:51:00;9.77;;;4.43;;
7685;SDS011;3885;51.474;-2.576;2022-12-07T03:53:29;9.33;;;4.40;;
7685;SDS011;3885;51.474;-2.576;2022-12-07T03:56:00;7.73;;;3.93;;
7685;SDS011;3885;51.474;-2.576;2022-12-07T03:58:28;5.40;;;3.90;;
7685;SDS011;3885;51.474;-2.576;2022-12-07T04:00:56;10.53;;;4.60;;
7685;SDS011;3885;51.474;-2.576;2022-12-07T04:03:24;7.20;;;4.67;;
7685;SDS011;3885;51.474;-2.576;2022-12-07T04:05:51;9.43;;;4.10;;
7685;SDS011;3885;51.474;-2.576;2022-12-07T04:08:20;8.57;;;4.50;;
7685;SDS011;3885;51.474;-2.576;2022-12-07T04:10:47;6.90;;;4.00;;
7685;SDS011;3885;51.474;-2.576;2022-12-07T04:13:14;7.57;;;4.00;;
7685;SDS011;3885;51.474;-2.576;2022-12-07T04:15:41;9.67;;;4.60;;
7685;SDS011;3885;51.474;-2.576;2022-12-07T04:18:08;5.87;;;3.40;;
7685;SDS011;3885;51.474;-2.576;2022-12-07T04:20:35;6.20;;;3.77;;
7685;SDS011;3885;51.474;-2.576;2022-12-07T04:23:02;13.57;;;4.87;;
7685;SDS011;3885;51.474;-2.576;2022-12-07T04:25:31;22.43;;;3.87;;
7685;SDS011;3885;51.474;-2.576;2022-12-07T04:27:58;4.03;;;3.23;;
7685;SDS011;3885;51.474;-2.576;2022-12-07T04:30:25;5.17;;;3.90;;
7685;SDS011;3885;51.474;-2.576;2022-12-07T04:32:52;8.00;;;4.10;;
7685;SDS011;3885;51.474;-2.576;2022-12-07T04:35:19;8.63;;;3.80;;
7685;SDS011;3885;51.474;-2.576;2022-12-07T04:37:46;5.37;;;3.57;;
7685;SDS011;3885;51.474;-2.576;2022-12-07T04:40:13;6.70;;;3.60;;
7685;SDS011;3885;51.474;-2.576;2022-12-07T04:42:42;8.13;;;4.63;;
7685;SDS011;3885;51.474;-2.576;2022-12-07T04:45:09;5.00;;;3.50;;
7685;SDS011;3885;51.474;-2.576;2022-12-07T04:47:36;6.10;;;3.40;;
7685;SDS011;3885;51.474;-2.576;2022-12-07T04:50:04;7.87;;;3.10;;
7685;SDS011;3885;51.474;-2.576;2022-12-07T04:52:32;3.57;;;2.80;;
7685;SDS011;3885;51.474;-2.576;2022-12-07T04:54:59;7.70;;;4.03;;
7685;SDS011;3885;51.474;-2.576;2022-12-07T04:57:26;5.70;;;3.33;;
7685;SDS011;3885;51.474;-2.576;2022-12-07T04:59:55;9.90;;;4.90;;
7685;SDS011;3885;51.474;-2.576;2022-12-07T05:02:22;8.17;;;4.10;;
7685;SDS011;3885;51.474;-2.576;2022-12-07T05:04:49;5.00;;;3.50;;
7685;SDS011;3885;51.474;-2.576;2022-12-07T05:07:16;6.30;;;3.23;;
7685;SDS011;3885;51.474;-2.576;2022-12-07T05:09:43;6.50;;;3.13;;
7685;SDS011;3885;51.474;-2.576;2022-12-07T05:12:10;11.60;;;4.20;;
7685;SDS011;3885;51.474;-2.576;2022-12-07T05:14:37;6.40;;;3.00;;
7685;SDS011;3885;51.474;-2.576;2022-12-07T05:17:05;7.50;;;4.13;;
7685;SDS011;3885;51.474;-2.576;2022-12-07T05:19:33;8.27;;;3.80;;
7685;SDS011;3885;51.474;-2.576;2022-12-07T05:22:00;6.13;;;2.97;;
7685;SDS011;3885;51.474;-2.576;2022-12-07T05:24:27;16.37;;;5.00;;
7685;SDS011;3885;51.474;-2.576;2022-12-07T05:26:54;13.23;;;3.80;;
7685;SDS011;3885;51.474;-2.576;2022-12-07T05:29:21;4.77;;;3.20;;
7685;SDS011;3885;51.474;-2.576;2022-12-07T05:31:48;9.03;;;3.80;;
7685;SDS011;3885;51.474;-2.576;2022-12-07T05:34:17;8.10;;;4.43;;
7685;SDS011;3885;51.474;-2.576;2022-12-07T05:36:44;6.10;;;3.40;;
7685;SDS011;3885;51.474;-2.576;2022-12-07T05:39:11;6.80;;;3.47;;
7685;SDS011;3885;51.474;-2.576;2022-12-07T05:41:39;8.40;;;3.50;;
7685;SDS011;3885;51.474;-2.576;2022-12-07T05:44:24;5.03;;;3.53;;
7685;SDS011;3885;51.474;-2.576;2022-12-07T05:46:51;9.67;;;5.10;;
7685;SDS011;3885;51.474;-2.576;2022-12-07T05:49:19;6.87;;;4.20;;
7685;SDS011;3885;51.474;-2.576;2022-12-07T05:51:46;9.60;;;4.77;;
7685;SDS011;3885;51.474;-2.576;2022-12-07T05:54:13;6.57;;;4.30;;
7685;SDS011;3885;51.474;-2.576;2022-12-07T05:56:40;12.30;;;6.23;;
7685;SDS011;3885;51.474;-2.576;2022-12-07T05:59:07;10.20;;;6.70;;
7685;SDS011;3885;51.474;-2.576;2022-12-07T06:01:53;12.07;;;7.03;;
7685;SDS011;3885;51.474;-2.576;2022-12-07T06:04:22;11.67;;;6.00;;
7685;SDS011;3885;51.474;-2.576;2022-12-07T06:06:49;7.60;;;5.37;;
7685;SDS011;3885;51.474;-2.576;2022-12-07T06:09:17;11.43;;;5.50;;
7685;SDS011;3885;51.474;-2.576;2022-12-07T06:11:44;12.67;;;6.13;;
7685;SDS011;3885;51.474;-2.576;2022-12-07T06:14:29;11.07;;;6.20;;
7685;SDS011;3885;51.474;-2.576;2022-12-07T06:16:56;13.57;;;6.90;;
7685;SDS011;3885;51.474;-2.576;2022-12-07T06:19:25;8.27;;;5.83;;
7685;SDS011;3885;51.474;-2.576;2022-12-07T06:21:52;8.90;;;5.30;;
7685;SDS011;3885;51.474;-2.576;2022-12-07T06:24:19;7.70;;;5.60;;
7685;SDS011;3885;51.474;-2.576;2022-12-07T06:26:47;9.40;;;6.13;;
7685;SDS011;3885;51.474;-2.576;2022-12-07T06:29:14;11.93;;;6.80;;
7685;SDS011;3885;51.474;-2.576;2022-12-07T06:31:41;11.47;;;6.33;;
7685;SDS011;3885;51.474;-2.576;2022-12-07T06:34:09;8.27;;;5.83;;
7685;SDS011;3885;51.474;-2.576;2022-12-07T06:36:38;13.30;;;7.40;;
7685;SDS011;3885;51.474;-2.576;2022-12-07T06:39:05;10.60;;;6.10;;
7685;SDS011;3885;51.474;-2.576;2022-12-07T06:41:34;11.37;;;5.87;;
7685;SDS011;3885;51.474;-2.576;2022-12-07T06:44:01;13.37;;;7.30;;
7685;SDS011;3885;51.474;-2.576;2022-12-07T06:46:29;16.77;;;7.70;;
7685;SDS011;3885;51.474;-2.576;2022-12-07T06:48:56;10.10;;;5.93;;
7685;SDS011;3885;51.474;-2.576;2022-12-07T06:51:23;19.60;;;7.70;;
7685;SDS011;3885;51.474;-2.576;2022-12-07T06:53:52;15.13;;;6.80;;
7685;SDS011;3885;51.474;-2.576;2022-12-07T06:56:19;22.53;;;5.93;;
7685;SDS011;3885;51.474;-2.576;2022-12-07T06:58:47;8.20;;;5.40;;
7685;SDS011;3885;51.474;-2.576;2022-12-07T07:01:15;8.63;;;5.70;;
7685;SDS011;3885;51.474;-2.576;2022-12-07T07:03:43;9.17;;;5.70;;
7685;SDS011;3885;51.474;-2.576;2022-12-07T07:06:11;12.97;;;5.00;;
7685;SDS011;3885;51.474;-2.576;2022-12-07T07:08:38;13.27;;;6.63;;
7685;SDS011;3885;51.474;-2.576;2022-12-07T07:11:08;8.63;;;5.27;;
7685;SDS011;3885;51.474;-2.576;2022-12-07T07:13:35;7.93;;;5.27;;
7685;SDS011;3885;51.474;-2.576;2022-12-07T07:16:02;7.77;;;4.87;;
7685;SDS011;3885;51.474;-2.576;2022-12-07T07:18:29;9.23;;;5.53;;
7685;SDS011;3885;51.474;-2.576;2022-12-07T07:20:56;12.30;;;5.50;;
7685;SDS011;3885;51.474;-2.576;2022-12-07T07:23:24;11.07;;;4.90;;
7685;SDS011;3885;51.474;-2.576;2022-12-07T07:25:51;8.07;;;4.60;;
7685;SDS011;3885;51.474;-2.576;2022-12-07T07:28:19;9.60;;;5.43;;
7685;SDS011;3885;51.474;-2.576;2022-12-07T07:30:46;12.20;;;5.90;;
7685;SDS011;3885;51.474;-2.576;2022-12-07T07:33:13;9.70;;;3.70;;
7685;SDS011;3885;51.474;-2.576;2022-12-07T07:35:41;11.80;;;6.10;;
7685;SDS011;3885;51.474;-2.576;2022-12-07T07:38:08;10.40;;;6.30;;
7685;SDS011;3885;51.474;-2.576;2022-12-07T07:40:35;12.40;;;6.07;;
7685;SDS011;3885;51.474;-2.576;2022-12-07T07:43:02;12.93;;;6.40;;
7685;SDS011;3885;51.474;-2.576;2022-12-07T07:45:31;16.13;;;8.40;;
7685;SDS011;3885;51.474;-2.576;2022-12-07T07:47:58;15.77;;;6.80;;
7685;SDS011;3885;51.474;-2.576;2022-12-07T07:50:25;9.97;;;5.47;;
7685;SDS011;3885;51.474;-2.576;2022-12-07T07:52:52;8.27;;;5.57;;
7685;SDS011;3885;51.474;-2.576;2022-12-07T07:55:20;14.83;;;5.97;;
7685;SDS011;3885;51.474;-2.576;2022-12-07T07:57:47;13.07;;;5.87;;
7685;SDS011;3885;51.474;-2.576;2022-12-07T08:00:14;10.67;;;5.57;;
7685;SDS011;3885;51.474;-2.576;2022-12-07T08:02:43;13.53;;;5.30;;
7685;SDS011;3885;51.474;-2.576;2022-12-07T08:05:11;7.57;;;5.27;;
7685;SDS011;3885;51.474;-2.576;2022-12-07T08:07:38;12.07;;;6.93;;
7685;SDS011;3885;51.474;-2.576;2022-12-07T08:10:06;7.97;;;4.80;;
7685;SDS011;3885;51.474;-2.576;2022-12-07T08:12:36;8.13;;;5.10;;
7685;SDS011;3885;51.474;-2.576;2022-12-07T08:15:24;11.70;;;4.30;;
7685;SDS011;3885;51.474;-2.576;2022-12-07T08:17:53;10.13;;;5.50;;
7685;SDS011;3885;51.474;-2.576;2022-12-07T08:20:21;10.60;;;4.63;;
7685;SDS011;3885;51.474;-2.576;2022-12-07T08:22:48;6.70;;;4.70;;
7685;SDS011;3885;51.474;-2.576;2022-12-07T08:25:15;9.40;;;4.87;;
7685;SDS011;3885;51.474;-2.576;2022-12-07T08:27:42;6.07;;;4.20;;
7685;SDS011;3885;51.474;-2.576;2022-12-07T08:30:09;15.70;;;5.30;;
7685;SDS011;3885;51.474;-2.576;2022-12-07T08:32:36;7.67;;;4.93;;
7685;SDS011;3885;51.474;-2.576;2022-12-07T08:35:06;12.60;;;5.17;;
7685;SDS011;3885;51.474;-2.576;2022-12-07T08:37:33;7.90;;;5.03;;
7685;SDS011;3885;51.474;-2.576;2022-12-07T08:40:00;6.57;;;4.93;;
7685;SDS011;3885;51.474;-2.576;2022-12-07T08:42:27;8.37;;;5.80;;
7685;SDS011;3885;51.474;-2.576;2022-12-07T08:45:02;7.90;;;5.50;;
7685;SDS011;3885;51.474;-2.576;2022-12-07T08:47:30;10.13;;;5.20;;
7685;SDS011;3885;51.474;-2.576;2022-12-07T08:49:57;11.30;;;5.00;;
7685;SDS011;3885;51.474;-2.576;2022-12-07T08:52:29;18.70;;;7.40;;
7685;SDS011;3885;51.474;-2.576;2022-12-07T08:54:57;14.63;;;7.37;;
7685;SDS011;3885;51.474;-2.576;2022-12-07T08:57:24;6.03;;;4.37;;
7685;SDS011;3885;51.474;-2.576;2022-12-07T08:59:52;10.70;;;6.53;;
7685;SDS011;3885;51.474;-2.576;2022-12-07T09:02:19;10.77;;;6.57;;
7685;SDS011;3885;51.474;-2.576;2022-12-07T09:04:46;8.30;;;5.03;;
7685;SDS011;3885;51.474;-2.576;2022-12-07T09:07:13;9.70;;;4.60;;
7685;SDS011;3885;51.474;-2.576;2022-12-07T09:09:41;6.40;;;4.53;;
7685;SDS011;3885;51.474;-2.576;2022-12-07T09:12:09;8.20;;;6.13;;
7685;SDS011;3885;51.474;-2.576;2022-12-07T09:14:35;12.30;;;5.20;;
7685;SDS011;3885;51.474;-2.576;2022-12-07T09:17:06;15.37;;;5.27;;
7685;SDS011;3885;51.474;-2.576;2022-12-07T09:19:33;9.10;;;5.70;;
7685;SDS011;3885;51.474;-2.576;2022-12-07T09:22:00;11.00;;;6.00;;
7685;SDS011;3885;51.474;-2.576;2022-12-07T09:24:28;6.90;;;5.50;;
7685;SDS011;3885;51.474;-2.576;2022-12-07T09:26:56;11.77;;;6.23;;
7685;SDS011;3885;51.474;-2.576;2022-12-07T09:29:23;12.53;;;6.77;;
7685;SDS011;3885;51.474;-2.576;2022-12-07T09:31:51;16.50;;;6.97;;
7685;SDS011;3885;51.474;-2.576;2022-12-07T09:34:18;7.60;;;4.73;;
7685;SDS011;3885;51.474;-2.576;2022-12-07T09:36:46;14.53;;;5.17;;
7685;SDS011;3885;51.474;-2.576;2022-12-07T09:39:13;14.00;;;7.10;;
7685;SDS011;3885;51.474;-2.576;2022-12-07T09:41:41;7.87;;;5.63;;
7685;SDS011;3885;51.474;-2.576;2022-12-07T09:44:11;8.00;;;5.50;;
7685;SDS011;3885;51.474;-2.576;2022-12-07T09:46:40;14.47;;;6.60;;
7685;SDS011;3885;51.474;-2.576;2022-12-07T09:49:09;16.83;;;7.53;;
7685;SDS011;3885;51.474;-2.576;2022-12-07T09:51:38;9.60;;;5.23;;
7685;SDS011;3885;51.474;-2.576;2022-12-07T09:54:05;10.77;;;5.50;;
7685;SDS011;3885;51.474;-2.576;2022-12-07T09:56:33;11.23;;;6.23;;
7685;SDS011;3885;51.474;-2.576;2022-12-07T09:59:00;22.73;;;7.20;;
7685;SDS011;3885;51.474;-2.576;2022-12-07T10:01:30;11.20;;;5.40;;
7685;SDS011;3885;51.474;-2.576;2022-12-07T10:04:00;9.53;;;6.23;;
7685;SDS011;3885;51.474;-2.576;2022-12-07T10:06:28;14.20;;;6.33;;
7685;SDS011;3885;51.474;-2.576;2022-12-07T10:08:56;10.27;;;5.80;;
7685;SDS011;3885;51.474;-2.576;2022-12-07T10:11:23;11.63;;;7.07;;
7685;SDS011;3885;51.474;-2.576;2022-12-07T10:13:51;17.17;;;6.53;;
7685;SDS011;3885;51.474;-2.576;2022-12-07T10:16:29;15.03;;;7.30;;
7685;SDS011;3885;51.474;-2.576;2022-12-07T10:18:58;27.77;;;6.77;;
7685;SDS011;3885;51.474;-2.576;2022-12-07T10:21:59;10.50;;;6.67;;
7685;SDS011;3885;51.474;-2.576;2022-12-07T10:24:26;20.90;;;7.50;;
7685;SDS011;3885;51.474;-2.576;2022-12-07T10:26:54;10.23;;;8.33;;
7685;SDS011;3885;51.474;-2.576;2022-12-07T10:29:22;13.97;;;7.07;;
7685;SDS011;3885;51.474;-2.576;2022-12-07T10:31:51;11.20;;;6.70;;
7685;SDS011;3885;51.474;-2.576;2022-12-07T10:34:21;17.67;;;7.33;;
7685;SDS011;3885;51.474;-2.576;2022-12-07T10:36:50;15.30;;;8.53;;
7685;SDS011;3885;51.474;-2.576;2022-12-07T10:39:18;11.53;;;7.80;;
7685;SDS011;3885;51.474;-2.576;2022-12-07T10:41:52;17.53;;;9.30;;
7685;SDS011;3885;51.474;-2.576;2022-12-07T10:44:21;16.17;;;10.00;;
7685;SDS011;3885;51.474;-2.576;2022-12-07T10:46:55;15.00;;;8.73;;
7685;SDS011;3885;51.474;-2.576;2022-12-07T10:49:30;15.10;;;8.97;;
7685;SDS011;3885;51.474;-2.576;2022-12-07T10:52:03;22.30;;;9.20;;
7685;SDS011;3885;51.474;-2.576;2022-12-07T10:54:36;17.00;;;9.33;;
7685;SDS011;3885;51.474;-2.576;2022-12-07T10:57:10;21.47;;;9.23;;
7685;SDS011;3885;51.474;-2.576;2022-12-07T10:59:48;18.03;;;9.87;;
7685;SDS011;3885;51.474;-2.576;2022-12-07T11:02:23;20.83;;;9.60;;
7685;SDS011;3885;51.474;-2.576;2022-12-07T11:05:01;17.50;;;8.10;;
7685;SDS011;3885;51.474;-2.576;2022-12-07T11:07:34;14.33;;;7.63;;
7685;SDS011;3885;51.474;-2.576;2022-12-07T11:10:05;15.83;;;7.80;;
7685;SDS011;3885;51.474;-2.576;2022-12-07T11:12:39;13.63;;;7.77;;
7685;SDS011;3885;51.474;-2.576;2022-12-07T11:15:13;17.20;;;9.23;;
7685;SDS011;3885;51.474;-2.576;2022-12-07T11:17:43;20.73;;;9.40;;
7685;SDS011;3885;51.474;-2.576;2022-12-07T11:20:15;12.50;;;7.30;;
7685;SDS011;3885;51.474;-2.576;2022-12-07T11:22:48;14.70;;;6.87;;
7685;SDS011;3885;51.474;-2.576;2022-12-07T11:25:18;12.17;;;5.00;;
7685;SDS011;3885;51.474;-2.576;2022-12-07T11:27:51;16.87;;;5.10;;
7685;SDS011;3885;51.474;-2.576;2022-12-07T11:30:24;15.33;;;3.83;;
7685;SDS011;3885;51.474;-2.576;2022-12-07T11:33:02;7.43;;;3.93;;
7685;SDS011;3885;51.474;-2.576;2022-12-07T11:35:37;9.53;;;3.47;;
7685;SDS011;3885;51.474;-2.576;2022-12-07T11:38:08;4.07;;;2.57;;
7685;SDS011;3885;51.474;-2.576;2022-12-07T11:40:37;8.77;;;3.53;;
7685;SDS011;3885;51.474;-2.576;2022-12-07T11:43:06;12.53;;;3.63;;
7685;SDS011;3885;51.474;-2.576;2022-12-07T11:45:42;4.50;;;3.30;;
7685;SDS011;3885;51.474;-2.576;2022-12-07T11:48:11;7.90;;;3.43;;
7685;SDS011;3885;51.474;-2.576;2022-12-07T11:50:41;9.00;;;3.57;;
7685;SDS011;3885;51.474;-2.576;2022-12-07T11:53:10;4.77;;;3.37;;
7685;SDS011;3885;51.474;-2.576;2022-12-07T11:55:42;5.83;;;3.67;;
7685;SDS011;3885;51.474;-2.576;2022-12-07T12:01:05;7.10;;;3.40;;
7685;SDS011;3885;51.474;-2.576;2022-12-07T12:03:36;10.07;;;3.97;;
7685;SDS011;3885;51.474;-2.576;2022-12-07T12:06:06;13.90;;;4.37;;
7685;SDS011;3885;51.474;-2.576;2022-12-07T12:08:34;5.43;;;4.13;;
7685;SDS011;3885;51.474;-2.576;2022-12-07T12:11:08;7.33;;;4.77;;
7685;SDS011;3885;51.474;-2.576;2022-12-07T12:13:46;10.23;;;5.53;;
7685;SDS011;3885;51.474;-2.576;2022-12-07T12:16:23;7.70;;;5.10;;
7685;SDS011;3885;51.474;-2.576;2022-12-07T12:19:01;8.80;;;4.53;;
7685;SDS011;3885;51.474;-2.576;2022-12-07T12:21:45;6.20;;;4.57;;
7685;SDS011;3885;51.474;-2.576;2022-12-07T12:24:14;8.43;;;4.40;;
7685;SDS011;3885;51.474;-2.576;2022-12-07T12:26:48;15.90;;;4.70;;
7685;SDS011;3885;51.474;-2.576;2022-12-07T12:29:19;5.43;;;3.77;;
7685;SDS011;3885;51.474;-2.576;2022-12-07T12:31:48;10.80;;;4.30;;
7685;SDS011;3885;51.474;-2.576;2022-12-07T12:34:38;6.70;;;5.07;;
7685;SDS011;3885;51.474;-2.576;2022-12-07T12:42:42;9.00;;;3.70;;
7685;SDS011;3885;51.474;-2.576;2022-12-07T12:45:20;10.37;;;3.93;;
7685;SDS011;3885;51.474;-2.576;2022-12-07T12:47:55;5.47;;;3.30;;
7685;SDS011;3885;51.474;-2.576;2022-12-07T12:50:26;11.10;;;3.23;;
7685;SDS011;3885;51.474;-2.576;2022-12-07T12:53:02;14.50;;;3.53;;
7685;SDS011;3885;51.474;-2.576;2022-12-07T12:58:48;3.87;;;3.10;;
7685;SDS011;3885;51.474;-2.576;2022-12-07T13:04:16;7.97;;;3.97;;
7685;SDS011;3885;51.474;-2.576;2022-12-07T13:06:44;3.13;;;2.80;;
7685;SDS011;3885;51.474;-2.576;2022-12-07T13:09:17;6.73;;;3.60;;
7685;SDS011;3885;51.474;-2.576;2022-12-07T13:11:47;5.63;;;3.97;;
7685;SDS011;3885;51.474;-2.576;2022-12-07T13:23:09;20.83;;;4.63;;
7685;SDS011;3885;51.474;-2.576;2022-12-07T13:25:41;8.13;;;3.57;;
7685;SDS011;3885;51.474;-2.576;2022-12-07T13:28:10;11.40;;;2.80;;
7685;SDS011;3885;51.474;-2.576;2022-12-07T13:30:44;6.83;;;2.70;;
7685;SDS011;3885;51.474;-2.576;2022-12-07T13:33:16;6.17;;;3.10;;
7685;SDS011;3885;51.474;-2.576;2022-12-07T13:35:45;9.83;;;3.27;;
7685;SDS011;3885;51.474;-2.576;2022-12-07T13:38:18;3.70;;;2.87;;
7685;SDS011;3885;51.474;-2.576;2022-12-07T13:40:58;5.40;;;2.50;;
7685;SDS011;3885;51.474;-2.576;2022-12-07T13:43:27;5.73;;;2.93;;
7685;SDS011;3885;51.474;-2.576;2022-12-07T13:45:57;4.70;;;2.07;;
7685;SDS011;3885;51.474;-2.576;2022-12-07T13:48:28;5.60;;;2.10;;
7685;SDS011;3885;51.474;-2.576;2022-12-07T13:50:58;4.63;;;2.37;;
7685;SDS011;3885;51.474;-2.576;2022-12-07T13:53:26;4.70;;;2.30;;
7685;SDS011;3885;51.474;-2.576;2022-12-07T13:55:55;9.03;;;2.40;;
7685;SDS011;3885;51.474;-2.576;2022-12-07T13:58:23;3.87;;;2.87;;
7685;SDS011;3885;51.474;-2.576;2022-12-07T14:00:50;4.10;;;2.30;;
7685;SDS011;3885;51.474;-2.576;2022-12-07T14:03:30;4.07;;;2.10;;
7685;SDS011;3885;51.474;-2.576;2022-12-07T14:06:17;7.00;;;2.13;;
7685;SDS011;3885;51.474;-2.576;2022-12-07T14:08:47;2.53;;;2.20;;
7685;SDS011;3885;51.474;-2.576;2022-12-07T14:11:15;4.07;;;2.00;;
7685;SDS011;3885;51.474;-2.576;2022-12-07T14:13:51;6.37;;;2.50;;
7685;SDS011;3885;51.474;-2.576;2022-12-07T14:16:23;3.60;;;1.90;;
7685;SDS011;3885;51.474;-2.576;2022-12-07T14:18:54;3.60;;;2.53;;
7685;SDS011;3885;51.474;-2.576;2022-12-07T14:21:22;6.07;;;1.80;;
7685;SDS011;3885;51.474;-2.576;2022-12-07T14:24:08;4.43;;;2.00;;
7685;SDS011;3885;51.474;-2.576;2022-12-07T14:26:38;6.10;;;2.37;;
7685;SDS011;3885;51.474;-2.576;2022-12-07T14:29:19;4.63;;;2.60;;
7685;SDS011;3885;51.474;-2.576;2022-12-07T14:31:46;7.20;;;2.10;;
7685;SDS011;3885;51.474;-2.576;2022-12-07T14:34:15;4.40;;;2.20;;
7685;SDS011;3885;51.474;-2.576;2022-12-07T14:36:42;3.93;;;2.13;;
7685;SDS011;3885;51.474;-2.576;2022-12-07T14:39:09;10.30;;;2.17;;
7685;SDS011;3885;51.474;-2.576;2022-12-07T14:41:36;11.33;;;2.97;;
7685;SDS011;3885;51.474;-2.576;2022-12-07T14:44:19;3.13;;;2.07;;
7685;SDS011;3885;51.474;-2.576;2022-12-07T14:46:46;9.10;;;3.60;;
7685;SDS011;3885;51.474;-2.576;2022-12-07T14:49:15;14.87;;;3.13;;
7685;SDS011;3885;51.474;-2.576;2022-12-07T14:51:43;18.23;;;3.00;;
7685;SDS011;3885;51.474;-2.576;2022-12-07T14:54:12;2.07;;;1.87;;
7685;SDS011;3885;51.474;-2.576;2022-12-07T14:56:43;4.10;;;2.07;;
7685;SDS011;3885;51.474;-2.576;2022-12-07T14:59:11;1.83;;;1.73;;
7685;SDS011;3885;51.474;-2.576;2022-12-07T15:01:38;8.63;;;2.70;;
7685;SDS011;3885;51.474;-2.576;2022-12-07T15:04:05;4.77;;;2.57;;
7685;SDS011;3885;51.474;-2.576;2022-12-07T15:06:33;5.83;;;2.77;;
7685;SDS011;3885;51.474;-2.576;2022-12-07T15:09:01;5.23;;;1.73;;
7685;SDS011;3885;51.474;-2.576;2022-12-07T15:11:28;3.57;;;2.20;;
7685;SDS011;3885;51.474;-2.576;2022-12-07T15:13:55;2.47;;;2.27;;
7685;SDS011;3885;51.474;-2.576;2022-12-07T15:16:36;7.33;;;2.80;;
7685;SDS011;3885;51.474;-2.576;2022-12-07T15:19:05;4.50;;;2.13;;
7685;SDS011;3885;51.474;-2.576;2022-12-07T15:21:33;4.70;;;2.10;;
7685;SDS011;3885;51.474;-2.576;2022-12-07T15:24:00;6.00;;;3.00;;
7685;SDS011;3885;51.474;-2.576;2022-12-07T15:26:28;6.63;;;2.30;;
7685;SDS011;3885;51.474;-2.576;2022-12-07T15:28:54;2.60;;;1.70;;
7685;SDS011;3885;51.474;-2.576;2022-12-07T15:31:22;1.90;;;1.80;;
7685;SDS011;3885;51.474;-2.576;2022-12-07T15:33:49;5.13;;;2.00;;
7685;SDS011;3885;51.474;-2.576;2022-12-07T15:36:18;2.30;;;1.90;;
7685;SDS011;3885;51.474;-2.576;2022-12-07T15:38:47;3.00;;;2.20;;